Time;durP1;ratioP1;P1;durP2;ratioP2;P2;SDS_P1;SDS_P2;PMS_P1;PMS_P2;Temp;Humidity;BMP_temperature;BMP_pressure;BME280_temperature;BME280_humidity;BME280_pressure;Samples;Min_cycle;Max_cycle;Signal;HPM_P1;HPM_P2
2023/12/10 00:01:45;;;;;;;13.75;3.05;;;13.10;66.00;14.60;99474.00;;;;5015358;28;20295;-73
2023/12/10 00:04:12;;;;;;;16.00;2.92;;;13.10;66.00;14.60;99492.00;;;;5015264;28;20193;-75
2023/12/10 00:06:39;;;;;;;16.08;2.97;;;13.20;66.00;14.60;99503.00;;;;5030326;28;20199;-76
2023/12/10 00:09:06;;;;;;;11.32;2.30;;;13.20;66.00;14.60;99492.00;;;;5034898;28;20193;-74
2023/12/10 00:11:33;;;;;;;16.80;2.97;;;13.20;66.10;14.60;99502.00;;;;5034273;28;20200;-73
2023/12/10 00:14:01;;;;;;;13.15;2.72;;;13.20;66.20;14.60;99502.00;;;;5026011;28;20221;-73
2023/12/10 00:16:29;;;;;;;13.45;2.90;;;13.20;66.30;14.60;99499.00;;;;5014883;28;20229;-74
2023/12/10 00:18:56;;;;;;;13.27;2.50;;;13.20;66.40;14.60;99494.00;;;;5019562;28;20196;-76
2023/12/10 00:21:23;;;;;;;11.90;2.25;;;13.10;66.40;14.60;99503.00;;;;5021876;28;20554;-74
2023/12/10 00:23:50;;;;;;;13.95;2.63;;;13.10;66.50;14.50;99505.00;;;;5032315;28;20693;-75
2023/12/10 00:26:18;;;;;;;15.23;3.05;;;13.20;66.60;14.50;99495.00;;;;5029100;28;20283;-76
2023/12/10 00:28:45;;;;;;;11.55;2.60;;;13.10;66.70;14.50;99503.00;;;;5033727;28;20200;-77
2023/12/10 00:31:12;;;;;;;17.55;3.25;;;13.10;66.80;14.50;99516.00;;;;5027712;28;20211;-78
2023/12/10 00:33:41;;;;;;;13.15;3.10;;;13.10;66.80;14.40;99497.00;;;;5031309;28;20226;-76
2023/12/10 00:36:09;;;;;;;14.27;2.42;;;13.00;66.90;14.40;99500.00;;;;5019707;28;20204;-76
2023/12/10 00:38:38;;;;;;;9.48;2.53;;;13.00;67.00;14.40;99503.00;;;;5028027;28;20200;-75
2023/12/10 00:41:06;;;;;;;11.35;2.35;;;13.00;67.10;14.40;99504.00;;;;5014925;28;20259;-75
2023/12/10 00:43:33;;;;;;;12.90;2.03;;;13.00;67.20;14.40;99508.00;;;;5018037;28;20569;-75
2023/12/10 00:46:00;;;;;;;13.00;2.20;;;12.90;67.20;14.30;99512.00;;;;5014743;28;20685;-74
2023/12/10 00:48:27;;;;;;;13.00;2.50;;;12.90;67.30;14.30;99519.00;;;;5031140;28;20192;-75
2023/12/10 00:50:55;;;;;;;12.65;2.42;;;12.80;67.30;14.30;99511.00;;;;5032224;28;20211;-74
2023/12/10 00:53:22;;;;;;;10.23;2.17;;;12.90;67.50;14.30;99510.00;;;;5034074;28;20666;-75
2023/12/10 00:55:49;;;;;;;20.35;2.75;;;12.80;67.50;14.30;99519.00;;;;5017913;28;20205;-75
2023/12/10 00:58:16;;;;;;;17.25;2.92;;;12.80;67.50;14.30;99517.00;;;;5016275;28;20204;-75
2023/12/10 01:00:43;;;;;;;14.73;2.40;;;12.80;67.60;14.20;99527.00;;;;5025992;28;20638;-75
2023/12/10 01:03:10;;;;;;;8.35;1.88;;;12.80;67.60;14.20;99527.00;;;;5022289;28;20734;-76
2023/12/10 01:05:37;;;;;;;11.57;2.03;;;12.80;67.60;14.20;99526.00;;;;5014019;28;20221;-74
2023/12/10 01:08:06;;;;;;;11.45;2.13;;;12.70;67.60;14.20;99532.00;;;;5027485;28;20203;-74
2023/12/10 01:10:33;;;;;;;15.35;2.42;;;12.70;68.30;14.20;99525.00;;;;5030656;28;20208;-75
2023/12/10 01:13:00;;;;;;;17.17;3.25;;;12.70;67.70;14.20;99530.00;;;;5029811;28;20636;-76
2023/12/10 01:15:30;;;;;;;7.00;1.95;;;12.70;67.70;14.10;99560.00;;;;5032448;28;20224;-75
2023/12/10 01:18:00;;;;;;;12.48;2.53;;;12.70;67.70;14.10;99531.00;;;;5022727;28;20189;-75
2023/12/10 01:20:29;;;;;;;7.28;1.83;;;12.70;67.70;14.10;99537.00;;;;5018182;28;20196;-75
2023/12/10 01:22:57;;;;;;;11.00;2.65;;;12.70;67.80;14.10;99533.00;;;;5032084;28;20228;-73
2023/12/10 01:25:26;;;;;;;8.35;1.90;;;12.60;67.80;14.10;99541.00;;;;5031595;28;20599;-75
2023/12/10 01:27:53;;;;;;;12.82;2.13;;;12.60;67.80;14.10;99529.00;;;;5019379;28;20609;-73
2023/12/10 01:30:23;;;;;;;11.02;2.85;;;12.60;67.80;14.10;99538.00;;;;5014678;28;20197;-75
2023/12/10 01:32:51;;;;;;;7.03;1.92;;;12.60;67.80;14.00;99539.00;;;;5029448;28;20196;-75
2023/12/10 01:35:18;;;;;;;12.93;2.53;;;12.60;67.80;14.00;99532.00;;;;5027485;28;20219;-74
2023/12/10 01:37:45;;;;;;;16.05;3.78;;;12.60;67.90;14.00;99530.00;;;;5025249;28;20188;-74
2023/12/10 01:40:13;;;;;;;13.30;2.50;;;12.60;67.80;14.00;99536.00;;;;5032515;28;20199;-73
2023/12/10 01:42:42;;;;;;;11.82;3.08;;;12.60;67.80;14.00;99525.00;;;;5017360;28;20193;-75
2023/12/10 01:45:11;;;;;;;9.93;2.88;;;12.50;67.80;14.00;99530.00;;;;5014458;28;20211;-75
2023/12/10 01:47:43;;;;;;;10.00;2.40;;;12.50;67.80;13.90;99524.00;;;;5013556;28;20235;-75
2023/12/10 01:50:11;;;;;;;12.70;2.55;;;12.50;67.80;14.00;99541.00;;;;5018802;28;20228;-79
2023/12/10 01:52:39;;;;;;;14.45;2.80;;;12.50;67.80;14.00;99535.00;;;;5022652;28;20200;-75
2023/12/10 01:55:09;;;;;;;14.05;2.40;;;12.50;67.70;14.00;99540.00;;;;5013365;28;20229;-75
2023/12/10 01:57:36;;;;;;;8.70;2.05;;;12.50;67.70;14.00;99536.00;;;;5025734;28;20196;-75
2023/12/10 02:00:07;;;;;;;20.27;3.47;;;12.50;67.80;13.90;99544.00;;;;5029052;28;20220;-77
2023/12/10 02:02:36;;;;;;;9.05;2.72;;;12.50;67.70;13.90;99543.00;;;;5026484;28;20704;-75
2023/12/10 02:05:06;;;;;;;14.43;2.00;;;12.50;67.70;13.90;99551.00;;;;5019986;28;20266;-81
2023/12/10 02:07:34;;;;;;;14.38;2.33;;;12.50;67.80;14.00;99552.00;;;;5013721;28;20562;-75
2023/12/10 02:10:05;;;;;;;10.45;1.92;;;12.50;67.70;14.00;99555.00;;;;5029591;28;20650;-74
2023/12/10 02:12:34;;;;;;;9.35;2.17;;;12.50;67.80;14.00;99561.00;;;;5030894;28;20196;-74
2023/12/10 02:15:14;;;;;;;14.60;2.88;;;12.50;67.80;13.90;99563.00;;;;5027618;28;20311;-75
2023/12/10 02:17:41;;;;;;;12.52;2.72;;;12.50;67.70;13.90;99564.00;;;;5024083;28;20605;-74
2023/12/10 02:20:10;;;;;;;12.95;2.25;;;12.50;67.70;13.90;99580.00;;;;5013305;28;20240;-73
2023/12/10 02:22:40;;;;;;;10.85;2.17;;;12.50;67.70;13.90;99589.00;;;;5012539;28;20208;-75
2023/12/10 02:25:09;;;;;;;11.18;2.00;;;12.50;67.70;13.90;99584.00;;;;5026660;28;20670;-77
2023/12/10 02:27:38;;;;;;;12.15;2.13;;;12.50;68.50;13.80;99584.00;;;;5026314;28;20224;-74
2023/12/10 02:30:09;;;;;;;8.70;2.10;;;12.50;67.80;13.80;99590.00;;;;5024082;28;20203;-77
2023/12/10 02:32:36;;;;;;;12.45;2.30;;;12.50;67.80;13.80;99589.00;;;;5032009;28;20200;-73
2023/12/10 02:35:04;;;;;;;9.13;2.10;;;12.40;67.80;13.80;99599.00;;;;5019613;28;20344;-73
2023/12/10 02:37:31;;;;;;;7.65;1.48;;;12.40;67.80;13.80;99600.00;;;;5012958;28;20208;-74
2023/12/10 02:39:58;;;;;;;9.52;2.10;;;12.40;67.90;13.80;99596.00;;;;5018382;28;20189;-74
2023/12/10 02:42:25;;;;;;;11.93;2.30;;;12.40;68.00;13.80;99600.00;;;;5014090;28;20196;-75
2023/12/10 02:44:54;;;;;;;16.75;3.53;;;12.40;68.00;13.70;99612.00;;;;5031994;28;20202;-75
2023/12/10 02:47:21;;;;;;;12.60;2.65;;;12.40;68.00;13.70;99599.00;;;;5017616;28;20225;-73
2023/12/10 02:49:48;;;;;;;20.92;3.72;;;12.40;68.00;13.70;99610.00;;;;5025057;28;20202;-76
2023/12/10 02:52:16;;;;;;;15.35;2.35;;;12.40;68.70;13.70;99606.00;;;;5020167;28;20221;-75
2023/12/10 02:54:43;;;;;;;17.27;2.65;;;12.30;68.00;13.70;99602.00;;;;5021138;28;20216;-75
2023/12/10 02:57:10;;;;;;;13.65;2.97;;;12.30;68.00;13.70;99594.00;;;;5029646;28;20188;-74
2023/12/10 02:59:37;;;;;;;13.23;2.85;;;12.30;68.10;13.60;99599.00;;;;5027951;28;20220;-76
2023/12/10 03:02:05;;;;;;;11.02;2.40;;;12.30;68.20;13.60;99602.00;;;;5025205;28;20204;-76
2023/12/10 03:04:32;;;;;;;13.02;3.08;;;12.30;68.20;13.60;99611.00;;;;5029094;28;20196;-74
2023/12/10 03:06:59;;;;;;;13.73;2.55;;;12.30;68.30;13.60;99603.00;;;;5028910;28;20188;-74
2023/12/10 03:09:26;;;;;;;12.95;3.05;;;12.30;68.40;13.60;99614.00;;;;5011533;28;20192;-75
2023/12/10 03:11:53;;;;;;;13.80;2.47;;;12.30;68.30;13.60;99610.00;;;;5012536;28;20204;-76
2023/12/10 03:14:20;;;;;;;13.52;3.60;;;12.30;68.30;13.60;99604.00;;;;5018536;28;20723;-74
2023/12/10 03:16:47;;;;;;;10.30;2.55;;;12.20;68.30;13.60;99609.00;;;;5020994;28;20192;-77
2023/12/10 03:19:16;;;;;;;13.43;2.22;;;12.20;68.40;13.60;99621.00;;;;5029637;28;20747;-75
2023/12/10 03:21:43;;;;;;;12.15;1.65;;;12.30;68.50;13.70;99631.00;;;;5029376;28;20281;-75
2023/12/10 03:24:10;;;;;;;15.95;3.15;;;12.30;68.50;13.70;99623.00;;;;5019331;28;20229;-76
2023/12/10 03:26:38;;;;;;;17.85;3.10;;;12.30;68.50;13.70;99638.00;;;;5019065;28;20199;-77
2023/12/10 03:29:05;;;;;;;14.63;3.08;;;12.30;68.50;13.60;99624.00;;;;5012515;28;20197;-73
2023/12/10 03:31:32;;;;;;;13.60;2.50;;;12.30;68.40;13.60;99631.00;;;;5016494;28;20510;-75
2023/12/10 03:33:59;;;;;;;12.05;3.05;;;12.20;68.20;13.60;99640.00;;;;5024062;28;20680;-76
2023/12/10 03:36:28;;;;;;;9.13;2.00;;;12.30;68.90;13.60;99635.00;;;;5012351;28;20197;-73
2023/12/10 03:38:55;;;;;;;12.38;3.03;;;12.30;68.20;13.60;99647.00;;;;5022162;28;20231;-74
2023/12/10 03:41:22;;;;;;;9.85;2.08;;;12.30;68.30;13.60;99647.00;;;;5028276;28;20573;-76
2023/12/10 03:43:49;;;;;;;16.52;2.65;;;12.30;68.20;13.50;99648.00;;;;5025449;28;20260;-75
2023/12/10 03:46:16;;;;;;;14.30;2.70;;;12.20;68.20;13.50;99672.00;;;;5031170;28;20197;-75
2023/12/10 03:48:43;;;;;;;17.63;2.88;;;12.30;68.30;13.50;99659.00;;;;5030392;28;20204;-76
2023/12/10 03:51:10;;;;;;;10.48;1.92;;;12.30;68.30;13.50;99658.00;;;;5029501;28;20724;-75
2023/12/10 03:53:39;;;;;;;13.13;2.67;;;12.20;68.30;13.50;99672.00;;;;5014010;28;20297;-75
2023/12/10 03:56:07;;;;;;;12.60;2.10;;;12.20;68.40;13.50;99679.00;;;;5014470;28;20220;-73
2023/12/10 03:58:34;;;;;;;18.02;3.28;;;12.20;68.50;13.50;99678.00;;;;5026141;28;20215;-75
2023/12/10 04:01:01;;;;;;;14.77;3.05;;;12.20;68.50;13.50;99685.00;;;;5015570;28;20219;-74
2023/12/10 04:03:28;;;;;;;13.23;2.47;;;12.20;68.40;13.50;99676.00;;;;5011635;28;20189;-75
2023/12/10 04:05:55;;;;;;;15.77;3.03;;;12.20;68.50;13.40;99691.00;;;;5011404;28;20988;-75
2023/12/10 04:08:22;;;;;;;11.13;2.75;;;12.20;68.50;13.40;99681.00;;;;5015173;28;20211;-78
2023/12/10 04:10:50;;;;;;;16.10;3.35;;;12.20;68.60;13.40;99686.00;;;;5024436;28;20279;-74
2023/12/10 04:13:17;;;;;;;9.38;2.28;;;12.20;68.60;13.40;99703.00;;;;5014347;28;20188;-75
2023/12/10 04:15:45;;;;;;;16.20;1.98;;;12.20;68.60;13.40;99711.00;;;;5012923;28;20229;-75
2023/12/10 04:18:12;;;;;;;8.95;1.90;;;12.20;68.70;13.50;99704.00;;;;5017766;28;20220;-74
2023/12/10 04:20:39;;;;;;;14.88;2.63;;;12.20;68.70;13.50;99697.00;;;;5015944;28;20640;-75
2023/12/10 04:23:06;;;;;;;17.95;2.60;;;12.10;68.70;13.50;99708.00;;;;5022372;28;20563;-74
2023/12/10 04:25:33;;;;;;;12.50;2.53;;;12.20;68.70;13.50;99721.00;;;;5015313;28;20224;-75
2023/12/10 04:28:03;;;;;;;7.22;2.03;;;12.20;68.70;13.50;99737.00;;;;5029263;28;20688;-74
2023/12/10 04:30:31;;;;;;;14.65;2.65;;;12.20;68.70;13.50;99729.00;;;;5034174;28;20650;-75
2023/12/10 04:32:58;;;;;;;20.23;2.63;;;12.20;68.60;13.50;99712.00;;;;5019446;28;20376;-76
2023/12/10 04:35:25;;;;;;;16.40;2.53;;;12.20;68.50;13.50;99733.00;;;;5017605;28;20679;-73
2023/12/10 04:37:52;;;;;;;17.30;3.10;;;12.20;68.40;13.50;99736.00;;;;5025563;28;20221;-75
2023/12/10 04:40:19;;;;;;;14.45;3.08;;;12.20;68.30;13.60;99745.00;;;;5025739;28;20615;-74
2023/12/10 04:42:46;;;;;;;12.52;2.20;;;12.30;68.30;13.60;99762.00;;;;5030483;28;20196;-74
2023/12/10 04:45:16;;;;;;;10.95;2.30;;;12.30;68.40;13.60;99750.00;;;;5017567;28;20215;-74
2023/12/10 04:47:43;;;;;;;12.13;2.75;;;12.30;68.50;13.60;99752.00;;;;5013523;28;20201;-73
2023/12/10 04:50:11;;;;;;;12.15;2.40;;;12.30;68.50;13.70;99741.00;;;;5031675;28;20614;-74
2023/12/10 04:52:38;;;;;;;9.73;2.30;;;12.30;68.30;13.70;99755.00;;;;5028321;28;20211;-74
2023/12/10 04:55:06;;;;;;;10.93;2.00;;;12.30;68.30;13.70;99763.00;;;;5031620;28;20311;-75
2023/12/10 04:57:33;;;;;;;12.93;2.35;;;12.40;68.20;13.70;99764.00;;;;5032277;28;20205;-74
2023/12/10 05:00:00;;;;;;;9.30;2.25;;;12.40;68.00;13.70;99755.00;;;;5015775;28;20704;-75
2023/12/10 05:02:29;;;;;;;13.40;2.58;;;12.40;68.00;13.70;99763.00;;;;5014392;28;20199;-74
2023/12/10 05:04:56;;;;;;;9.40;2.03;;;12.40;68.70;13.80;99750.00;;;;5014498;28;20284;-75
2023/12/10 05:07:23;;;;;;;15.88;2.17;;;12.40;67.90;13.80;99759.00;;;;5017985;28;20607;-74
2023/12/10 05:09:50;;;;;;;12.05;2.50;;;12.40;67.80;13.80;99773.00;;;;5030522;28;20220;-73
2023/12/10 05:12:17;;;;;;;12.00;2.50;;;12.50;67.70;13.80;99780.00;;;;5032536;28;20307;-74
2023/12/10 05:14:44;;;;;;;10.35;1.92;;;12.50;67.70;13.90;99773.00;;;;5019959;28;20747;-75
2023/12/10 05:17:11;;;;;;;9.48;2.55;;;12.50;67.70;13.90;99789.00;;;;5013634;28;20193;-74
2023/12/10 05:19:39;;;;;;;14.65;2.50;;;12.60;67.50;13.90;99790.00;;;;5014418;28;20239;-73
2023/12/10 05:22:06;;;;;;;11.25;2.28;;;12.60;67.50;13.90;99787.00;;;;5020029;28;20197;-72
2023/12/10 05:24:33;;;;;;;10.18;3.08;;;12.60;67.30;13.90;99805.00;;;;5014563;28;20311;-73
2023/12/10 05:27:00;;;;;;;11.88;3.40;;;12.60;67.30;14.00;99813.00;;;;5020618;28;20212;-74
2023/12/10 05:29:27;;;;;;;13.95;2.20;;;12.70;67.00;14.00;99811.00;;;;5013779;28;20689;-73
2023/12/10 05:31:54;;;;;;;11.90;2.30;;;12.70;67.20;14.00;99803.00;;;;5013086;28;20219;-74
2023/12/10 05:34:21;;;;;;;12.25;2.35;;;12.70;67.00;14.10;99823.00;;;;5013530;28;20193;-75
2023/12/10 05:36:50;;;;;;;11.70;2.08;;;12.70;66.80;14.00;99810.00;;;;5020439;28;21050;-74
2023/12/10 05:39:17;;;;;;;14.68;2.90;;;12.80;66.70;14.10;99830.00;;;;5032998;28;20192;-76
2023/12/10 05:41:44;;;;;;;10.32;1.75;;;12.80;66.40;14.10;99852.00;;;;5031701;28;20193;-78
2023/12/10 05:44:11;;;;;;;10.15;1.55;;;12.80;66.60;14.10;99835.00;;;;5028704;28;20196;-78
2023/12/10 05:46:38;;;;;;;13.35;2.28;;;12.80;66.50;14.20;99833.00;;;;5031626;28;20668;-77
2023/12/10 05:49:05;;;;;;;12.20;2.03;;;12.90;66.60;14.20;99854.00;;;;5015461;28;20200;-75
2023/12/10 05:51:32;;;;;;;10.10;2.28;;;12.90;66.40;14.20;99847.00;;;;5027919;28;20201;-77
2023/12/10 05:54:00;;;;;;;9.95;2.88;;;12.90;66.60;14.20;99866.00;;;;5032913;28;20287;-76
2023/12/10 05:56:27;;;;;;;9.45;2.08;;;12.90;66.10;14.30;99876.00;;;;5031067;28;20220;-78
2023/12/10 05:58:54;;;;;;;15.02;2.97;;;13.00;66.40;14.30;99882.00;;;;5023972;28;20594;-76
2023/12/10 06:01:22;;;;;;;15.77;2.92;;;13.00;65.90;14.30;99869.00;;;;5024825;28;20201;-78
2023/12/10 06:03:49;;;;;;;9.95;2.33;;;13.00;65.80;14.30;99893.00;;;;5013341;28;20207;-76
2023/12/10 06:06:16;;;;;;;10.52;2.25;;;13.00;65.60;14.30;99916.00;;;;5013193;28;20197;-77
2023/12/10 06:08:43;;;;;;;11.57;2.75;;;13.00;65.60;14.30;99921.00;;;;5012665;28;20203;-76
2023/12/10 06:11:12;;;;;;;11.05;1.98;;;13.00;65.60;14.30;99923.00;;;;5012963;28;20211;-77
2023/12/10 06:13:39;;;;;;;13.48;2.42;;;13.00;65.80;14.30;99920.00;;;;5018455;28;20304;-76
2023/12/10 06:16:08;;;;;;;14.23;2.60;;;13.00;65.60;14.30;99927.00;;;;5024367;28;20212;-76
2023/12/10 06:18:35;;;;;;;9.73;1.88;;;13.00;65.80;14.30;99929.00;;;;5026297;28;20198;-76
2023/12/10 06:21:02;;;;;;;12.90;2.17;;;13.00;65.70;14.30;99940.00;;;;5029073;28;20224;-76
2023/12/10 06:23:29;;;;;;;14.75;1.98;;;13.00;65.70;14.30;99946.00;;;;5024374;28;20701;-75
2023/12/10 06:25:56;;;;;;;18.27;2.60;;;13.00;65.60;14.30;99956.00;;;;5023773;28;20235;-74
2023/12/10 06:28:25;;;;;;;12.82;2.58;;;13.00;65.60;14.30;99964.00;;;;5030529;28;20189;-75
2023/12/10 06:30:52;;;;;;;12.82;2.53;;;13.00;65.40;14.30;99959.00;;;;5026171;28;20283;-75
2023/12/10 06:33:19;;;;;;;13.18;2.20;;;13.00;65.50;14.30;99957.00;;;;5029298;28;20188;-74
2023/12/10 06:35:46;;;;;;;11.90;2.85;;;13.00;65.50;14.30;99966.00;;;;5029567;28;20242;-75
2023/12/10 06:38:13;;;;;;;12.15;2.33;;;13.00;65.40;14.30;99968.00;;;;5029612;28;20196;-78
2023/12/10 06:40:40;;;;;;;13.48;2.05;;;13.00;65.40;14.30;99987.00;;;;5024649;28;20201;-76
2023/12/10 06:43:07;;;;;;;9.43;2.17;;;13.00;65.40;14.30;99993.00;;;;5026346;28;20212;-76
2023/12/10 06:45:35;;;;;;;11.13;2.40;;;13.10;65.40;14.30;99995.00;;;;5030191;28;20595;-75
2023/12/10 06:48:02;;;;;;;12.25;2.22;;;13.00;65.10;14.30;100010.00;;;;5029692;28;20751;-75
2023/12/10 06:50:31;;;;;;;14.63;2.75;;;13.00;65.20;14.30;100017.00;;;;5026199;28;20538;-76
2023/12/10 06:52:58;;;;;;;8.43;2.22;;;13.10;65.10;14.40;100015.00;;;;5024359;28;20677;-75
2023/12/10 06:55:25;;;;;;;11.10;3.33;;;13.00;65.30;14.40;100017.00;;;;5027102;28;20209;-74
2023/12/10 06:57:53;;;;;;;10.07;2.28;;;13.10;65.00;14.40;100022.00;;;;5026594;28;20229;-76
2023/12/10 07:00:20;;;;;;;9.60;2.00;;;13.10;65.20;14.40;100034.00;;;;5025596;28;20216;-75
2023/12/10 07:02:48;;;;;;;8.40;2.03;;;13.10;65.00;14.40;100028.00;;;;5024668;28;20196;-76
2023/12/10 07:05:15;;;;;;;11.63;2.80;;;13.10;65.10;14.50;100036.00;;;;5029206;28;20215;-75
2023/12/10 07:07:42;;;;;;;13.98;2.42;;;13.10;65.00;14.50;100048.00;;;;5027084;28;20188;-75
2023/12/10 07:10:10;;;;;;;18.27;2.47;;;13.20;65.10;14.50;100064.00;;;;5027999;28;20196;-77
2023/12/10 07:12:37;;;;;;;14.23;2.38;;;13.20;64.70;14.50;100057.00;;;;5028176;28;20200;-75
2023/12/10 07:15:06;;;;;;;9.02;1.73;;;13.20;64.90;14.50;100061.00;;;;5027430;28;20199;-75
2023/12/10 07:17:33;;;;;;;10.77;2.20;;;13.20;65.00;14.50;100063.00;;;;5019129;28;20221;-74
2023/12/10 07:20:01;;;;;;;15.18;2.53;;;13.20;64.40;14.50;100064.00;;;;5025386;28;20276;-74
2023/12/10 07:22:29;;;;;;;7.30;2.20;;;13.20;64.50;14.60;100077.00;;;;5023488;28;20227;-73
2023/12/10 07:24:57;;;;;;;13.27;2.17;;;13.20;64.70;14.60;100075.00;;;;5027270;28;20194;-75
2023/12/10 07:27:24;;;;;;;12.20;2.15;;;13.20;64.40;14.50;100081.00;;;;5029173;28;20275;-75
2023/12/10 07:29:51;;;;;;;18.02;1.98;;;13.20;64.50;14.60;100088.00;;;;5027841;28;20204;-76
2023/12/10 07:32:18;;;;;;;12.27;2.35;;;13.30;64.60;14.60;100089.00;;;;5025994;28;20211;-75
2023/12/10 07:34:45;;;;;;;6.80;1.40;;;13.30;64.50;14.60;100100.00;;;;5016944;28;20204;-76
2023/12/10 07:37:13;;;;;;;12.93;2.35;;;13.30;64.50;14.60;100108.00;;;;5026193;28;20224;-76
2023/12/10 07:39:40;;;;;;;13.13;2.05;;;13.30;64.50;14.60;100099.00;;;;5023425;28;20199;-74
2023/12/10 07:42:07;;;;;;;6.45;2.00;;;13.30;64.30;14.60;100112.00;;;;5022004;28;20200;-74
2023/12/10 07:44:35;;;;;;;6.90;1.92;;;13.30;64.30;14.60;100124.00;;;;5013991;28;20486;-74
2023/12/10 07:47:02;;;;;;;10.88;1.92;;;13.30;64.50;14.70;100144.00;;;;5015982;28;20231;-74
2023/12/10 07:49:29;;;;;;;10.40;2.58;;;13.30;64.40;14.70;100134.00;;;;5020272;28;20592;-74
2023/12/10 07:51:56;;;;;;;11.70;1.95;;;13.30;63.90;14.70;100146.00;;;;5024026;28;20199;-74
2023/12/10 07:54:24;;;;;;;14.52;2.95;;;13.30;64.30;14.70;100151.00;;;;5015996;28;20204;-74
2023/12/10 07:56:51;;;;;;;13.10;2.42;;;13.40;63.90;14.70;100167.00;;;;5024979;28;20216;-76
2023/12/10 07:59:19;;;;;;;9.13;2.30;;;13.30;64.00;14.70;100165.00;;;;5019238;28;20295;-76
2023/12/10 08:01:46;;;;;;;18.13;2.42;;;13.30;64.60;14.60;100188.00;;;;5023414;28;20196;-76
2023/12/10 08:04:13;;;;;;;15.60;2.30;;;13.30;64.10;14.70;100166.00;;;;5026229;28;20193;-77
2023/12/10 08:06:40;;;;;;;11.75;2.60;;;13.40;64.00;14.70;100193.00;;;;5023363;28;20197;-74
2023/12/10 08:09:07;;;;;;;11.57;1.95;;;13.30;63.70;14.70;100194.00;;;;5024468;28;20204;-75
2023/12/10 08:11:36;;;;;;;10.77;2.05;;;13.40;64.00;14.70;100202.00;;;;5032640;28;20220;-75
2023/12/10 08:14:03;;;;;;;9.32;2.00;;;13.30;64.10;14.70;100210.00;;;;5024135;28;20205;-75
2023/12/10 08:16:30;;;;;;;9.65;1.70;;;13.40;63.90;14.70;100210.00;;;;5033985;28;20322;-76
2023/12/10 08:18:57;;;;;;;11.93;2.60;;;13.40;64.00;14.70;100195.00;;;;5034129;28;20192;-76
2023/12/10 08:21:24;;;;;;;12.80;2.50;;;13.30;63.70;14.70;100211.00;;;;5022405;28;20205;-75
2023/12/10 08:23:52;;;;;;;8.93;1.63;;;13.40;64.00;14.70;100208.00;;;;5015483;28;20217;-75
2023/12/10 08:26:19;;;;;;;11.45;1.88;;;13.30;64.00;14.70;100227.00;;;;5022923;28;20189;-74
2023/12/10 08:28:48;;;;;;;10.27;2.05;;;13.40;64.10;14.70;100231.00;;;;5014660;28;20580;-76
2023/12/10 08:31:15;;;;;;;11.27;2.25;;;13.40;64.00;14.70;100216.00;;;;5014932;28;20545;-75
2023/12/10 08:33:44;;;;;;;9.07;1.70;;;13.40;64.00;14.70;100228.00;;;;5015501;28;20209;-75
2023/12/10 08:36:11;;;;;;;13.25;3.10;;;13.40;63.90;14.70;100231.00;;;;5018008;28;20225;-74
2023/12/10 08:38:38;;;;;;;10.55;2.65;;;13.30;63.70;14.70;100243.00;;;;5032660;28;20261;-75
2023/12/10 08:41:06;;;;;;;11.02;1.80;;;13.40;63.80;14.70;100244.00;;;;5031348;28;20228;-77
2023/12/10 08:43:33;;;;;;;12.43;2.28;;;13.30;63.80;14.70;100245.00;;;;5014991;28;20236;-76
2023/12/10 08:46:02;;;;;;;10.07;2.03;;;13.30;63.80;14.70;100245.00;;;;5022438;28;20201;-75
2023/12/10 08:48:30;;;;;;;7.93;1.83;;;13.40;63.90;14.80;100247.00;;;;5014839;28;20664;-75
2023/12/10 08:50:57;;;;;;;7.20;1.75;;;13.40;63.90;14.80;100260.00;;;;5024972;28;20650;-75
2023/12/10 08:53:24;;;;;;;11.23;2.00;;;13.40;63.80;14.80;100259.00;;;;5018710;28;20201;-76
2023/12/10 08:55:51;;;;;;;10.65;1.80;;;13.40;63.80;14.80;100269.00;;;;5017160;28;20207;-75
2023/12/10 08:58:18;;;;;;;15.50;2.08;;;13.40;63.80;14.80;100271.00;;;;5030565;28;20205;-76
2023/12/10 09:00:45;;;;;;;6.18;1.70;;;13.40;63.80;14.80;100273.00;;;;5015925;28;20221;-76
2023/12/10 09:03:13;;;;;;;13.73;1.80;;;13.40;63.80;14.80;100275.00;;;;5013317;28;20654;-76
2023/12/10 09:05:40;;;;;;;8.45;1.77;;;13.40;63.90;14.80;100290.00;;;;5015099;28;20208;-76
2023/12/10 09:08:07;;;;;;;9.30;1.85;;;13.40;63.60;14.80;100285.00;;;;5030195;28;20193;-78
2023/12/10 09:10:35;;;;;;;8.65;1.50;;;13.50;63.60;14.80;100285.00;;;;5033625;28;20204;-77
2023/12/10 09:13:02;;;;;;;10.13;2.13;;;13.40;63.70;14.80;100293.00;;;;5027198;28;20201;-75
2023/12/10 09:15:29;;;;;;;12.55;2.03;;;13.40;63.80;14.80;100304.00;;;;5017337;28;20201;-76
2023/12/10 09:17:56;;;;;;;10.70;1.70;;;13.40;63.70;14.80;100315.00;;;;5016470;28;20698;-76
2023/12/10 09:20:24;;;;;;;9.85;1.80;;;13.50;63.80;14.80;100308.00;;;;5014614;28;20193;-76
2023/12/10 09:22:51;;;;;;;8.18;1.75;;;13.50;63.80;14.90;100310.00;;;;5018081;28;20255;-76
2023/12/10 09:25:19;;;;;;;10.05;2.25;;;13.50;63.70;14.90;100317.00;;;;5020982;28;20215;-75
2023/12/10 09:27:46;;;;;;;8.02;1.75;;;13.50;63.80;14.90;100333.00;;;;5016402;28;20254;-76
2023/12/10 09:30:14;;;;;;;10.38;1.50;;;13.50;63.90;15.00;100342.00;;;;5028774;28;20205;-76
2023/12/10 09:32:42;;;;;;;7.88;1.23;;;13.50;63.70;14.90;100348.00;;;;5016756;28;20245;-76
2023/12/10 09:35:10;;;;;;;11.27;1.63;;;13.50;63.70;15.00;100344.00;;;;5024398;28;20680;-76
2023/12/10 09:37:38;;;;;;;7.78;2.00;;;13.50;63.70;15.00;100338.00;;;;5032796;28;20235;-75
2023/12/10 09:40:06;;;;;;;7.90;2.05;;;13.60;63.60;15.00;100336.00;;;;5015514;28;20576;-75
2023/12/10 09:42:33;;;;;;;6.05;2.03;;;13.60;63.70;15.10;100336.00;;;;5014141;28;20291;-75
2023/12/10 09:45:00;;;;;;;9.75;2.10;;;13.60;63.90;15.10;100335.00;;;;5013605;28;20667;-75
2023/12/10 09:47:30;;;;;;;13.60;1.73;;;13.60;63.80;15.10;100319.00;;;;5014300;28;20199;-76
2023/12/10 09:49:59;;;;;;;6.82;1.20;;;13.60;63.60;15.10;100317.00;;;;5017882;28;20204;-76
2023/12/10 09:52:26;;;;;;;11.40;2.28;;;13.70;63.70;15.10;100320.00;;;;5025015;28;20582;-75
2023/12/10 09:54:55;;;;;;;7.88;1.45;;;13.70;64.20;15.10;100319.00;;;;5022510;28;20215;-77
2023/12/10 09:57:27;;;;;;;13.30;2.08;;;13.70;63.50;15.10;100317.00;;;;5033047;28;20318;-76
2023/12/10 09:59:55;;;;;;;11.63;2.28;;;13.70;63.20;15.10;100323.00;;;;5032009;28;20243;-76
2023/12/10 10:02:22;;;;;;;7.93;1.25;;;13.80;63.40;15.20;100324.00;;;;5032940;28;20286;-75
2023/12/10 10:04:49;;;;;;;7.50;1.90;;;13.80;63.60;15.20;100320.00;;;;5033115;28;20302;-74
2023/12/10 10:07:17;;;;;;;8.55;1.92;;;13.80;63.40;15.20;100321.00;;;;5032187;28;20204;-74
2023/12/10 10:09:44;;;;;;;7.60;1.65;;;13.80;63.50;15.20;100320.00;;;;5031686;28;20200;-74
2023/12/10 10:12:13;;;;;;;7.90;1.75;;;13.90;63.50;15.30;100330.00;;;;5033120;28;20188;-79
2023/12/10 10:14:54;;;;;;;10.00;1.77;;;13.80;63.40;15.20;100315.00;;;;5027898;28;20224;-77
2023/12/10 10:17:27;;;;;;;14.32;2.38;;;13.90;63.60;15.30;100312.00;;;;5023510;28;20232;-79
2023/12/10 10:19:55;;;;;;;8.07;1.50;;;13.90;63.50;15.40;100321.00;;;;5020186;28;20255;-78
2023/12/10 10:22:23;;;;;;;9.55;1.35;;;13.90;63.50;15.40;100319.00;;;;5027095;28;20201;-80
2023/12/10 10:24:54;;;;;;;13.02;2.13;;;14.00;64.10;15.40;100335.00;;;;5028174;28;20212;-78
2023/12/10 10:27:23;;;;;;;7.47;1.20;;;14.00;63.50;15.50;100319.00;;;;5031125;28;20208;-77
2023/12/10 10:29:53;;;;;;;8.60;1.67;;;14.00;63.40;15.50;100315.00;;;;5029238;28;20299;-78
2023/12/10 10:32:22;;;;;;;7.38;1.58;;;14.10;63.50;15.60;100313.00;;;;5026573;28;20193;-80
2023/12/10 10:34:50;;;;;;;7.35;1.95;;;14.10;63.40;15.60;100323.00;;;;5030907;28;20650;-81
2023/12/10 10:39:46;;;;;;;12.45;2.30;;;14.10;63.90;15.60;100319.00;;;;5046621;23;20228;-75
2023/12/10 10:42:13;;;;;;;8.95;1.65;;;14.20;63.30;15.70;100333.00;;;;5037404;28;20702;-76
2023/12/10 10:44:43;;;;;;;10.43;2.17;;;14.20;63.20;15.70;100322.00;;;;5034220;28;20204;-75
2023/12/10 10:47:10;;;;;;;7.78;2.05;;;14.20;63.30;15.70;100330.00;;;;5045863;28;20188;-76
2023/12/10 10:49:44;;;;;;;9.95;2.00;;;14.20;63.00;15.60;100338.00;;;;5044926;28;20303;-76
2023/12/10 10:52:19;;;;;;;8.55;1.52;;;14.20;62.70;15.60;100342.00;;;;5032427;28;20243;-76